sensor_id;sensor_type;location;lat;lon;timestamp;pressure;altitude;pressure_sealevel;temperature;humidity
48386;BME280;34644;47.964;7.982;2023-02-15T00:06:34;97827.44;;;15.73;51.23
48386;BME280;34644;47.964;7.982;2023-02-15T00:13:34;97833.00;;;15.72;51.29
48386;BME280;34644;47.964;7.982;2023-02-15T00:20:36;97833.22;;;15.70;51.38
48386;BME280;34644;47.964;7.982;2023-02-15T00:27:36;97826.03;;;15.71;51.45
48386;BME280;34644;47.964;7.982;2023-02-15T00:34:36;97814.84;;;15.69;51.29
48386;BME280;34644;47.964;7.982;2023-02-15T00:41:36;97812.19;;;15.69;51.80
48386;BME280;34644;47.964;7.982;2023-02-15T00:48:37;97810.56;;;15.68;51.57
48386;BME280;34644;47.964;7.982;2023-02-15T00:55:37;97800.19;;;15.66;51.70
48386;BME280;34644;47.964;7.982;2023-02-15T01:02:39;97800.97;;;15.67;51.60
48386;BME280;34644;47.964;7.982;2023-02-15T01:09:40;97792.22;;;15.66;51.60
48386;BME280;34644;47.964;7.982;2023-02-15T01:16:40;97791.66;;;15.64;51.71
48386;BME280;34644;47.964;7.982;2023-02-15T01:23:41;97796.97;;;15.64;51.87
48386;BME280;34644;47.964;7.982;2023-02-15T01:30:41;97791.66;;;15.64;51.79
48386;BME280;34644;47.964;7.982;2023-02-15T01:37:42;97788.28;;;15.69;51.63
48386;BME280;34644;47.964;7.982;2023-02-15T01:52:09;97781.91;;;15.82;51.61
48386;BME280;34644;47.964;7.982;2023-02-15T01:59:14;97779.00;;;15.83;51.61
48386;BME280;34644;47.964;7.982;2023-02-15T02:06:17;97779.00;;;15.83;51.49
48386;BME280;34644;47.964;7.982;2023-02-15T02:13:17;97782.22;;;15.85;51.44
48386;BME280;34644;47.964;7.982;2023-02-15T02:20:25;97782.22;;;15.85;51.48
48386;BME280;34644;47.964;7.982;2023-02-15T02:41:49;97764.31;;;15.81;51.73
48386;BME280;34644;47.964;7.982;2023-02-15T02:48:50;97759.25;;;15.79;51.60
48386;BME280;34644;47.964;7.982;2023-02-15T02:55:56;97760.31;;;15.78;51.64
48386;BME280;34644;47.964;7.982;2023-02-15T03:03:00;97759.69;;;15.76;51.85
48386;BME280;34644;47.964;7.982;2023-02-15T03:10:05;97754.84;;;15.73;51.91
48386;BME280;34644;47.964;7.982;2023-02-15T03:17:06;97741.25;;;15.69;51.78
48386;BME280;34644;47.964;7.982;2023-02-15T03:24:12;97734.06;;;15.70;51.97
48386;BME280;34644;47.964;7.982;2023-02-15T03:31:14;97724.72;;;15.67;51.88
48386;BME280;34644;47.964;7.982;2023-02-15T03:38:17;97732.94;;;15.66;51.90
48386;BME280;34644;47.964;7.982;2023-02-15T03:45:22;97739.06;;;15.66;51.99
48386;BME280;34644;47.964;7.982;2023-02-15T03:52:25;97754.22;;;15.66;51.97
48386;BME280;34644;47.964;7.982;2023-02-15T03:59:26;97747.50;;;15.63;52.17
48386;BME280;34644;47.964;7.982;2023-02-15T04:06:45;97749.38;;;15.63;52.03
48386;BME280;34644;47.964;7.982;2023-02-15T04:13:45;97750.41;;;15.62;52.17
48386;BME280;34644;47.964;7.982;2023-02-15T04:20:45;97747.19;;;15.60;52.10
48386;BME280;34644;47.964;7.982;2023-02-15T04:28:05;97748.78;;;15.61;52.12
48386;BME280;34644;47.964;7.982;2023-02-15T04:35:07;97742.66;;;15.60;52.23
48386;BME280;34644;47.964;7.982;2023-02-15T04:42:08;97748.31;;;15.64;52.06
48386;BME280;34644;47.964;7.982;2023-02-15T04:49:08;97741.66;;;16.07;52.00
48386;BME280;34644;47.964;7.982;2023-02-15T04:56:08;97747.19;;;16.39;51.20
48386;BME280;34644;47.964;7.982;2023-02-15T05:03:09;97744.91;;;16.65;50.54
48386;BME280;34644;47.964;7.982;2023-02-15T05:10:09;97737.31;;;16.74;50.39
48386;BME280;34644;47.964;7.982;2023-02-15T05:17:10;97724.56;;;16.76;50.35
48386;BME280;34644;47.964;7.982;2023-02-15T05:24:10;97718.13;;;16.72;50.45
48386;BME280;34644;47.964;7.982;2023-02-15T05:31:49;97727.66;;;16.68;50.69
48386;BME280;34644;47.964;7.982;2023-02-15T05:38:52;97730.50;;;16.61;50.91
48386;BME280;34644;47.964;7.982;2023-02-15T05:45:52;97731.66;;;16.48;50.37
48386;BME280;34644;47.964;7.982;2023-02-15T05:52:53;97748.06;;;15.77;45.52
48386;BME280;34644;47.964;7.982;2023-02-15T05:59:53;97753.94;;;15.38;43.32
48386;BME280;34644;47.964;7.982;2023-02-15T06:06:53;97747.28;;;15.24;42.33
48386;BME280;34644;47.964;7.982;2023-02-15T06:13:54;97750.78;;;15.13;41.51
48386;BME280;34644;47.964;7.982;2023-02-15T06:20:54;97762.81;;;15.56;43.61
48386;BME280;34644;47.964;7.982;2023-02-15T06:27:54;97761.69;;;15.69;45.21
48386;BME280;34644;47.964;7.982;2023-02-15T06:34:54;97769.75;;;15.74;46.24
48386;BME280;34644;47.964;7.982;2023-02-15T06:41:54;97768.28;;;15.78;46.79
48386;BME280;34644;47.964;7.982;2023-02-15T06:48:55;97774.16;;;15.80;47.02
48386;BME280;34644;47.964;7.982;2023-02-15T06:56:05;97770.44;;;15.81;47.50
48386;BME280;34644;47.964;7.982;2023-02-15T07:03:09;97758.78;;;15.82;47.66
48386;BME280;34644;47.964;7.982;2023-02-15T07:10:09;97775.72;;;15.93;47.88
48386;BME280;34644;47.964;7.982;2023-02-15T07:17:09;97783.22;;;16.30;47.26
48386;BME280;34644;47.964;7.982;2023-02-15T07:24:09;97776.22;;;16.58;46.91
48386;BME280;34644;47.964;7.982;2023-02-15T07:31:10;97771.16;;;16.56;47.82
48386;BME280;34644;47.964;7.982;2023-02-15T07:38:10;97769.53;;;16.55;48.40
48386;BME280;34644;47.964;7.982;2023-02-15T07:45:10;97770.66;;;16.59;48.64
48386;BME280;34644;47.964;7.982;2023-02-15T07:52:10;97759.41;;;16.74;48.15
48386;BME280;34644;47.964;7.982;2023-02-15T07:59:11;97759.34;;;16.86;48.18
48386;BME280;34644;47.964;7.982;2023-02-15T08:06:11;97754.25;;;16.85;48.73
48386;BME280;34644;47.964;7.982;2023-02-15T08:13:13;97743.44;;;16.91;48.76
48386;BME280;34644;47.964;7.982;2023-02-15T08:20:13;97744.81;;;17.16;48.16
48386;BME280;34644;47.964;7.982;2023-02-15T08:27:13;97738.13;;;17.35;47.82
48386;BME280;34644;47.964;7.982;2023-02-15T08:34:15;97737.66;;;17.44;47.75
48386;BME280;34644;47.964;7.982;2023-02-15T08:41:23;97741.50;;;17.53;47.60
48386;BME280;34644;47.964;7.982;2023-02-15T08:48:26;97734.88;;;17.56;47.63
48386;BME280;34644;47.964;7.982;2023-02-15T08:55:26;97732.75;;;17.58;47.63
48386;BME280;34644;47.964;7.982;2023-02-15T09:02:27;97730.69;;;17.65;47.65
48386;BME280;34644;47.964;7.982;2023-02-15T09:09:27;97731.03;;;17.73;48.04
48386;BME280;34644;47.964;7.982;2023-02-15T09:16:28;97725.75;;;17.79;48.09
48386;BME280;34644;47.964;7.982;2023-02-15T09:23:29;97716.75;;;17.85;48.18
48386;BME280;34644;47.964;7.982;2023-02-15T09:30:29;97715.75;;;17.91;48.02
48386;BME280;34644;47.964;7.982;2023-02-15T09:37:30;97701.94;;;17.99;48.08
48386;BME280;34644;47.964;7.982;2023-02-15T09:51:47;97698.91;;;18.18;47.98
48386;BME280;34644;47.964;7.982;2023-02-15T10:13:21;97699.91;;;18.44;47.84
48386;BME280;34644;47.964;7.982;2023-02-15T10:27:28;97702.13;;;18.62;47.67
48386;BME280;34644;47.964;7.982;2023-02-15T10:34:37;97705.63;;;18.68;47.69
48386;BME280;34644;47.964;7.982;2023-02-15T10:41:44;97704.59;;;18.74;47.70
48386;BME280;34644;47.964;7.982;2023-02-15T10:56:31;97694.81;;;18.85;47.76
48386;BME280;34644;47.964;7.982;2023-02-15T11:04:13;97684.66;;;18.92;47.78
48386;BME280;34644;47.964;7.982;2023-02-15T11:11:07;97680.97;;;18.98;47.70
48386;BME280;34644;47.964;7.982;2023-02-15T11:18:16;97668.94;;;19.01;47.86
48386;BME280;34644;47.964;7.982;2023-02-15T11:25:24;97657.22;;;19.07;47.60
48386;BME280;34644;47.964;7.982;2023-02-15T11:39:28;97644.66;;;19.18;47.93
48386;BME280;34644;47.964;7.982;2023-02-15T11:46:29;97632.66;;;19.21;47.92
48386;BME280;34644;47.964;7.982;2023-02-15T11:53:31;97635.06;;;19.27;47.89
48386;BME280;34644;47.964;7.982;2023-02-15T12:00:34;97620.66;;;19.28;48.14
48386;BME280;34644;47.964;7.982;2023-02-15T12:07:36;97611.06;;;19.32;47.79
48386;BME280;34644;47.964;7.982;2023-02-15T12:14:48;97603.28;;;19.36;48.26
48386;BME280;34644;47.964;7.982;2023-02-15T12:21:49;97597.41;;;19.39;48.25
48386;BME280;34644;47.964;7.982;2023-02-15T12:28:51;97587.53;;;19.40;48.17
48386;BME280;34644;47.964;7.982;2023-02-15T12:36:03;97578.72;;;19.39;48.21
48386;BME280;34644;47.964;7.982;2023-02-15T12:43:04;97567.75;;;19.41;48.21
48386;BME280;34644;47.964;7.982;2023-02-15T12:50:11;97563.47;;;19.40;48.59
48386;BME280;34644;47.964;7.982;2023-02-15T12:57:24;97553.56;;;19.40;48.38
48386;BME280;34644;47.964;7.982;2023-02-15T13:04:28;97548.22;;;19.40;48.55
48386;BME280;34644;47.964;7.982;2023-02-15T13:11:29;97541.81;;;19.41;48.55
48386;BME280;34644;47.964;7.982;2023-02-15T13:18:35;97541.28;;;19.44;48.32
48386;BME280;34644;47.964;7.982;2023-02-15T13:25:44;97533.53;;;19.43;48.63
48386;BME280;34644;47.964;7.982;2023-02-15T13:32:51;97526.31;;;19.43;48.74
48386;BME280;34644;47.964;7.982;2023-02-15T13:54:03;97516.97;;;19.41;48.81
48386;BME280;34644;47.964;7.982;2023-02-15T14:01:44;97515.34;;;19.40;48.98
48386;BME280;34644;47.964;7.982;2023-02-15T14:08:39;97512.94;;;19.38;49.01
48386;BME280;34644;47.964;7.982;2023-02-15T14:23:13;97512.69;;;19.34;49.08
48386;BME280;34644;47.964;7.982;2023-02-15T14:30:19;97509.22;;;19.34;49.20
48386;BME280;34644;47.964;7.982;2023-02-15T14:44:40;97522.56;;;19.29;49.30
48386;BME280;34644;47.964;7.982;2023-02-15T15:05:53;97523.91;;;19.16;49.57
48386;BME280;34644;47.964;7.982;2023-02-15T15:12:58;97516.41;;;19.13;49.45
48386;BME280;34644;47.964;7.982;2023-02-15T15:20:38;97516.41;;;19.08;49.82
48386;BME280;34644;47.964;7.982;2023-02-15T15:41:44;97533.78;;;18.90;50.07
48386;BME280;34644;47.964;7.982;2023-02-15T15:48:48;97549.19;;;18.83;50.04
48386;BME280;34644;47.964;7.982;2023-02-15T15:55:50;97551.31;;;18.75;50.31
48386;BME280;34644;47.964;7.982;2023-02-15T16:02:52;97546.47;;;18.67;50.17
48386;BME280;34644;47.964;7.982;2023-02-15T16:09:59;97551.81;;;18.57;50.17
48386;BME280;34644;47.964;7.982;2023-02-15T16:17:03;97549.91;;;18.47;50.38
48386;BME280;34644;47.964;7.982;2023-02-15T16:24:08;97553.06;;;18.39;50.41
48386;BME280;34644;47.964;7.982;2023-02-15T16:31:16;97551.72;;;18.31;50.63
48386;BME280;34644;47.964;7.982;2023-02-15T16:38:16;97559.66;;;18.26;50.59
48386;BME280;34644;47.964;7.982;2023-02-15T16:45:18;97555.63;;;18.18;50.79
48386;BME280;34644;47.964;7.982;2023-02-15T16:52:20;97564.94;;;18.11;50.90
48386;BME280;34644;47.964;7.982;2023-02-15T16:59:31;97575.56;;;18.05;51.09
48386;BME280;34644;47.964;7.982;2023-02-15T17:06:34;97587.78;;;17.96;51.31
48386;BME280;34644;47.964;7.982;2023-02-15T17:13:34;97592.56;;;17.89;51.45
48386;BME280;34644;47.964;7.982;2023-02-15T17:20:35;97603.94;;;17.84;51.54
48386;BME280;34644;47.964;7.982;2023-02-15T17:27:38;97605.75;;;17.79;51.41
48386;BME280;34644;47.964;7.982;2023-02-15T17:41:42;97621.69;;;17.68;51.68
48386;BME280;34644;47.964;7.982;2023-02-15T17:48:42;97625.91;;;17.64;51.60
48386;BME280;34644;47.964;7.982;2023-02-15T17:55:44;97632.84;;;17.60;51.64
48386;BME280;34644;47.964;7.982;2023-02-15T18:02:45;97630.66;;;17.57;51.86
48386;BME280;34644;47.964;7.982;2023-02-15T18:10:14;97632.22;;;17.53;51.90
48386;BME280;34644;47.964;7.982;2023-02-15T18:17:41;97619.09;;;17.46;52.11
48386;BME280;34644;47.964;7.982;2023-02-15T18:24:43;97610.81;;;17.43;51.98
48386;BME280;34644;47.964;7.982;2023-02-15T18:31:43;97621.75;;;17.41;52.04
48386;BME280;34644;47.964;7.982;2023-02-15T18:38:44;97624.09;;;17.38;52.05
48386;BME280;34644;47.964;7.982;2023-02-15T18:45:45;97621.91;;;17.34;52.20
48386;BME280;34644;47.964;7.982;2023-02-15T18:52:45;97619.25;;;17.34;52.24
48386;BME280;34644;47.964;7.982;2023-02-15T18:59:46;97617.09;;;17.31;52.24
48386;BME280;34644;47.964;7.982;2023-02-15T19:06:47;97623.75;;;17.29;52.41
48386;BME280;34644;47.964;7.982;2023-02-15T19:13:49;97618.66;;;17.27;52.35
48386;BME280;34644;47.964;7.982;2023-02-15T19:20:49;97614.38;;;17.26;52.45
48386;BME280;34644;47.964;7.982;2023-02-15T19:27:49;97611.97;;;17.25;52.38
48386;BME280;34644;47.964;7.982;2023-02-15T19:34:50;97622.88;;;17.23;52.48
48386;BME280;34644;47.964;7.982;2023-02-15T19:41:51;97616.22;;;17.21;52.39
48386;BME280;34644;47.964;7.982;2023-02-15T19:48:52;97613.81;;;17.19;52.52
48386;BME280;34644;47.964;7.982;2023-02-15T19:55:52;97609.78;;;17.16;52.41
48386;BME280;34644;47.964;7.982;2023-02-15T20:02:53;97611.06;;;17.14;52.51
48386;BME280;34644;47.964;7.982;2023-02-15T20:09:54;97618.50;;;17.12;52.66
48386;BME280;34644;47.964;7.982;2023-02-15T20:16:54;97613.69;;;17.09;52.59
48386;BME280;34644;47.964;7.982;2023-02-15T20:23:55;97613.13;;;17.07;52.65
48386;BME280;34644;47.964;7.982;2023-02-15T20:30:55;97615.25;;;17.05;52.65
48386;BME280;34644;47.964;7.982;2023-02-15T20:37:56;97616.06;;;17.05;52.70
48386;BME280;34644;47.964;7.982;2023-02-15T20:44:59;97616.31;;;17.04;52.71
48386;BME280;34644;47.964;7.982;2023-02-15T20:51:59;97605.09;;;17.02;52.74
48386;BME280;34644;47.964;7.982;2023-02-15T20:59:02;97603.47;;;17.00;52.81
48386;BME280;34644;47.964;7.982;2023-02-15T21:06:05;97608.25;;;16.98;52.70
48386;BME280;34644;47.964;7.982;2023-02-15T21:13:08;97611.44;;;16.95;52.77
48386;BME280;34644;47.964;7.982;2023-02-15T21:20:14;97611.69;;;16.94;52.86
48386;BME280;34644;47.964;7.982;2023-02-15T21:27:15;97610.84;;;16.93;52.85
48386;BME280;34644;47.964;7.982;2023-02-15T21:34:15;97620.16;;;16.91;52.91
48386;BME280;34644;47.964;7.982;2023-02-15T21:41:17;97614.00;;;16.90;53.02
48386;BME280;34644;47.964;7.982;2023-02-15T21:48:37;97622.00;;;16.90;53.04
48386;BME280;34644;47.964;7.982;2023-02-15T21:55:37;97626.53;;;16.90;53.08
48386;BME280;34644;47.964;7.982;2023-02-15T22:02:37;97633.72;;;16.89;53.25
48386;BME280;34644;47.964;7.982;2023-02-15T22:09:39;97640.09;;;16.88;53.31
48386;BME280;34644;47.964;7.982;2023-02-15T22:16:40;97636.63;;;16.88;53.27
48386;BME280;34644;47.964;7.982;2023-02-15T22:23:40;97637.69;;;16.87;53.45
48386;BME280;34644;47.964;7.982;2023-02-15T22:30:41;97641.38;;;16.86;53.48
48386;BME280;34644;47.964;7.982;2023-02-15T22:37:41;97638.72;;;16.86;53.61
48386;BME280;34644;47.964;7.982;2023-02-15T22:44:42;97642.66;;;16.83;53.68
48386;BME280;34644;47.964;7.982;2023-02-15T22:51:43;97644.78;;;16.81;53.69
48386;BME280;34644;47.964;7.982;2023-02-15T22:58:44;97651.16;;;16.80;53.67
48386;BME280;34644;47.964;7.982;2023-02-15T23:05:48;97656.72;;;16.78;53.76
48386;BME280;34644;47.964;7.982;2023-02-15T23:12:49;97660.19;;;16.79;53.94
48386;BME280;34644;47.964;7.982;2023-02-15T23:20:12;97662.28;;;16.77;53.91
48386;BME280;34644;47.964;7.982;2023-02-15T23:27:14;97666.00;;;16.76;53.92
48386;BME280;34644;47.964;7.982;2023-02-15T23:34:33;97664.41;;;16.75;54.03
48386;BME280;34644;47.964;7.982;2023-02-15T23:41:34;97673.44;;;16.74;53.93
48386;BME280;34644;47.964;7.982;2023-02-15T23:48:35;97671.03;;;16.72;53.92
48386;BME280;34644;47.964;7.982;2023-02-15T23:55:37;97671.25;;;16.71;53.93
